2005 U14 SOD Cup Race Fest - GS
Results

12 year old

Jury
TD GILLARD J. CAN
Referee SHAW A. GP
Chief of Race AMARAL H. CRA
Other Workers
Start Ref MACDONALD J. CRA
Finish Ref GILLARD M. CRA
Race Admin MILGRAM S. CRA
Chief of Timing BATES F. CRA
Technical Data
Course Name
Start 400
Finish 200
Vertical Drop
Length
Homologation N/A
1st Run 2nd run
Course Setter HAWKWELL G. CRA HAWKSWELL G. CRA
Number of Gates 18/17 18/17
Homologation N/A N/A
Forerunner 1 GUNDERSON S. CRA DOE J. CRA
Forerunner 2 METCALF C. CRA
Forerunner 3 MARTIN J. CRA
Forerunner 4 STEWART B. CRA

Applied Penality: 465.34

Weather: OVERCAST AND WINDY

Snow:SOFT PACK

Temperature Start: 4 Temperature Finish: 4

F:980

Rank Card Bib Name Club YOB Category 1st Run 2nd run Total Time Points
1 85463 52 WARRILLOW Calvin CRAIG 05 U14 29.79 30.16 59.95 0
2 84873 117 KELLER Jacob CRAIG 05 U14 30.46 30.47 1:00.93 16.02
3 78479 70 KOSAR Ivan JOZOW 05 U14 30.39 30.98 1:01.37 23.21
4 81823 21 NEUMEIER Ryan ALPIN 05 U14 30.52 31.88 1:02.40 40.05
5 84702 40 MACDONELL Connor SNOWV 05 U14 30.30 32.11 1:02.41 40.21
6 80612 126 ERLICK Dylan ALPIN 05 U14 31.31 31.49 1:02.80 46.59
7 81106 11 HARRISON Matthew GEORG 05 U14 30.58 32.32 1:02.90 48.22
8 88232 5 RUSSELL Blake CRAIG 05 U14 30.57 32.79 1:03.36 55.74
9 78201 71 CAMPBELL Jakob DEVEL 05 U14 31.44 32.28 1:03.72 61.63
10 86215 119 MAZAN Zach GEORG 05 U14 31.56 32.19 1:03.75 62.12
11 86186 114 BEALLOR Adam CRAIG 05 U14 32.20 31.68 1:03.88 64.24
12 80710 116 BRAUN Roan GEORG 05 U14 31.81 32.13 1:03.94 65.22
13 82254 115 LANDON Trace TSCBM 05 U14 31.81 32.16 1:03.97 65.71
14 85788 48 LOSTY Benjamin CRAIG 05 U14 32.00 32.38 1:04.38 72.42
15 78673 30 BURKHART Owen BEAVR 05 U14 31.82 32.90 1:04.72 77.97
16 78444 29 GIGLIOTTI Luke JOZOW 05 U14 32.38 32.93 1:05.31 87.62
17 88373 66 MCFADDEN Troy JOZOW 05 U14 32.28 33.09 1:05.37 88.6
18 88542 100 LITTLE Matthew CALDN 05 U14 33.01 32.58 1:05.59 92.2
19 86187 8 BURBACH Daniel CRAIG 05 U14 31.74 33.91 1:05.65 93.18
20 78733 89 HARVEY Miles BEAVR 05 U14 32.36 33.32 1:05.68 93.67
21 88371 42 SIMOPOULOS Paul CRAIG 05 U14 32.39 33.38 1:05.77 95.14
22 80374 47 WANG William GLA 05 U14 32.39 33.45 1:05.84 96.28
23 81774 96 HONG Sam HEIGH 05 U14 32.90 32.99 1:05.89 97.1
24 78990 110 NOHDOMI Yuji GEORG 05 U14 33.14 33.07 1:06.21 102.33
25 88368 58 LIST Spencer CALDN 05 U14 33.25 33.17 1:06.42 105.76
26 85429 14 TANG Adrian TSCBM 05 U14 32.67 34.11 1:06.78 111.65
27 78768 51 LEPIPAS Felix BEAVR 05 U14 32.44 34.35 1:06.79 111.81
28 81832 13 PETTIT-CARRUTHERS Finlay HEIGH 05 U14 32.62 34.23 1:06.85 112.79
29 88369 87 TEMPLEMAN Jackson CALDN 05 U14 33.19 33.87 1:07.06 116.23
30 87844 22 ALVAREZ Kendrick JOZOW 05 U14 32.66 34.44 1:07.10 116.88
31 86185 17 NICHOLSON Tyler CRAIG 05 U14 32.53 34.62 1:07.15 117.7
32 85881 54 POLLONI Alessandro BEAVR 05 U14 33.36 33.92 1:07.28 119.82
33 91070 27 YEUNG Curtis SKYLO 05 U14 32.65 34.74 1:07.39 121.62
34 81059 86 HOPE Jonah BATAW 05 U14 33.67 33.81 1:07.48 123.09
35 88505 31 KOVACHEV Daniel JOZOW 05 U14 33.00 34.58 1:07.58 124.73
36 81883 111 SMITH Carter ALPIN 05 U14 33.97 33.79 1:07.76 127.67
37 88228 85 NORTH Harold CALDN 05 U14 34.04 34.07 1:08.11 133.39
38 88434 55 HORNING Oliver DEVEL 05 U14 33.94 34.39 1:08.33 136.99
39 87852 45 BRUSHETT Holden BRIMA 05 U14 33.63 34.74 1:08.37 137.64
40 84691 7 HAUBER Nathan BRIMA 05 U14 33.18 35.38 1:08.56 140.75
41 85882 94 POLLONI Matteo BEAVR 05 U14 34.63 33.98 1:08.61 141.56
42 81141 123 THISTLETHWAITE Cole HEIGH 05 U14 34.37 34.29 1:08.66 142.38
43 87879 4 MORGENSTERN Will CALDN 05 U14 32.84 35.98 1:08.82 145
44 78206 105 CRANE Charles DEVEL 05 U14 35.33 34.55 1:09.88 162.33
45 81819 81 MYERS William HEIGH 05 U14 35.08 34.85 1:09.93 163.14
46 88362 98 MUIRHEAD Clark CRAIG 05 U14 35.11 34.97 1:10.08 165.59
47 88173 62 BOS Zachary LONDN 05 U14 35.12 35.17 1:10.29 169.03
48 86217 28 LOPEZ Jacob BEAVR 05 U14 34.20 36.11 1:10.31 169.35
49 88359 46 RENAUD Hunter BEAVR 05 U14 33.62 36.71 1:10.33 169.68
50 87028 26 KINNEAR Cameron CRAIG 05 U14 34.25 36.13 1:10.38 170.5
51 89791 12 MAJEWSKI Cohen CRAIG 05 U14 34.30 36.11 1:10.41 170.99
52 87078 57 MEI Jeff NOYO 05 U14 34.60 35.95 1:10.55 173.28
53 81101 9 ERNST Matthew GEORG 05 U14 34.42 36.35 1:10.77 176.87
54 91722 78 STEVEN Christian LONDN 05 U14 34.86 36.00 1:10.86 178.35
55 86214 124 KUZMAROV Braden ALPIN 05 U14 35.66 35.36 1:11.02 180.96
56 80791 39 TAYLOR Shane MLTON 05 U14 34.60 36.81 1:11.41 187.34
57 93262 80 DIMAKOPOULOS Dean JOZOW 05 U14 34.23 37.60 1:11.83 194.2
58 85441 84 MOFFAT Harry CRAIG 05 U14 36.20 35.89 1:12.09 198.45
59 79143 18 RIDDELL Jacob CHICO 05 U14 34.66 37.50 1:12.16 199.6
60 78205 69 CLARKE Emerson DEVEL 05 U14 35.68 36.74 1:12.42 203.85
61 78646 44 ARMSTRONG Jonny HORSE 05 U14 35.94 36.60 1:12.54 205.81
62 85806 112 NICOLUCCI Jack CRAIG 05 U14 36.38 36.20 1:12.58 206.46
63 85787 53 POPE Charles CRAIG 05 U14 35.86 37.06 1:12.92 212.02
64 91003 76 HALBERT Riley BEAVR 05 U14 36.35 36.59 1:12.94 212.35
65 81859 61 TAIT Xavier MLTON 05 U14 35.98 37.35 1:13.33 218.72
66 81280 56 BARKER Jack GEORG 05 U14 36.44 37.52 1:13.96 229.02
67 94666 1 BARON Aiden JOZOW 05 U14 36.62 37.44 1:14.06 230.66
68 93430 20 WILLIAMS Taylor CHICO 05 U14 36.50 37.65 1:14.15 232.13
69 93904 32 HEATH Oscar HOCKL 05 U14 36.48 37.89 1:14.37 235.72
70 87077 106 ALPEZA Kristian NOYO 05 U14 36.47 38.09 1:14.56 238.83
71 94355 93 RADULOVIC Milan NOYO 05 U14 37.20 37.58 1:14.78 242.43
72 79096 38 VAN HAREN Nicholas MSFLD 05 U14 36.88 38.08 1:14.96 245.37
73 88167 82 ANDERSON Noah CHICO 05 U14 37.18 37.84 1:15.02 246.35
74 91004 101 HALBERT Darcy BEAVR 05 U14 37.90 37.71 1:15.61 255.99
75 93427 113 DEANGELIS Luca JOZOW 05 U14 38.00 37.84 1:15.84 259.75
76 85784 23 OBERAI Kiran CRAIG 05 U14 37.88 40.18 1:18.06 296.04
77 81147 36 GROSS Brandon HORSE 05 U14 35.99 42.93 1:18.92 310.1
78 81696 118 BENTLEY Evander BATAW 05 U14 40.28 39.10 1:19.38 317.62
79 93171 122 PAN Kaifeng MLTON 05 U14 39.83 40.12 1:19.95 326.94
80 85757 121 BURSTEIN Samuel ALPIN 05 U14 41.28 39.68 1:20.96 343.45
81 84785 59 MACIEJKO Bryce BRIMA 05 U14 39.53 41.52 1:21.05 344.92
82 94284 79 JAMNICKY Adam BRIMA 05 U14 40.45 41.29 1:21.74 356.2
83 88461 88 PRICE Adam NOYO 05 U14 42.29 39.84 1:22.13 362.58
84 88299 90 RONAN Mcguire CHICO 05 U14 41.71 41.54 1:23.25 380.88
85 93186 19 SOMERVILLE Andrew MLTON 05 U14 39.87 43.66 1:23.53 385.46
86 87882 6 HILL Matthew CHICO 05 U14 39.47 44.39 1:23.86 390.86
87 87065 125 MACKAY Carston JOZOW 05 U14 43.01 41.15 1:24.16 395.76
88 91208 34 LODATO Joseph CHICO 05 U14 40.74 43.84 1:24.58 402.63
89 84796 63 LUXBACHER Elijah BRIMA 05 U14 42.87 44.74 1:27.61 452.16
90 93920 68 ONESI Benjamin BATAW 05 U14 43.75 44.13 1:27.88 456.57
999 87053 2 DRAKE Ashton HEIGH 05 U14 DNS DNS 0
999 82185 15 DEMBSKI Nicolas CHICO 05 U14 DNS DNS 0
999 86199 25 GARRITY Dylan CRAIG 05 U14 DNS DNS 0
999 78597 33 THOMPSON Hayden JOZOW 05 U14 DNS DNS 0
999 85568 35 STUART Cameron GEORG 05 U14 DNS DNS 0
999 80500 43 SYDOR Jeremy MLTON 05 U14 DNS DNS 0
999 86192 49 ROBINSON Andrew CRAIG 05 U14 DNS DNS 0
999 93428 60 HILDEBRANDT Ian SNOWV 05 U14 DNS DNS 0
999 80745 64 INSLEY Simon HEIGH 05 U14 DNS DNS 0
999 86172 65 MAHAFFY Logan BEAVR 05 U14 DNS DNS 0
999 85731 67 RUFFOLO Caymus CRAIG 05 U14 DNS DNS 0
999 86159 74 THADANEY James CRAIG 05 U14 DNS DNS 0
999 84707 83 POPE Tristyn BRIMA 05 U14 DNS DNS 0
999 84237 92 HANCOCK William MSKSC 05 U14 DNS DNS 0
999 86221 97 MCDONALD Liam DEVGL 05 U14 DNS DNS 0
999 89515 99 SOTIR Eric BRIMA 05 U14 DNS DNS 0
999 81868 102 VERNER Carson GEORG 05 U14 DNS DNS 0
999 91393 108 MCCABE Rory MSKSC 05 U14 DNS DNS 0
999 81105 109 GRIEVE Kiran CRAIG 05 U14 DNS DNS 0
999 85481 120 GRAWEY Evan MLTON 05 U14 DNS DNS 0
999 81134 3 WARNELL Braden GEORG 05 U14 DNF 033.03 0
999 93221 10 MYCHALUK Adrian JOZOW 05 U14 DNF 040.86 0
999 80372 24 HENRY Tristan SNOWV 05 U14 DNF 033.45 0
999 94301 37 COHEN Elliot ALPIN 05 U14 DNF 042.30 0
999 86513 50 OUTERBRIDGE Owen JOZOW 05 U14 DNF 044.97 0
999 79134 72 JONES Tyler CHICO 05 U14 DNF 038.44 0
999 78434 73 DURNFORD Andrew BRIMA 05 U14 DNF 037.80 0
999 80782 75 OH Alexander MLTON 05 U14 DNF 032.86 0
999 81116 77 LITZGUS-SHAW Harris GEORG 05 U14 DNF 032.91 0
999 80748 91 MCCAFFERTY Charlie HEIGH 05 U14 DNF 034.40 0
999 84833 103 NIKOLS Alexander GLA 05 U14 DNF 038.92 0
999 80819 107 JACOBS Connor OSLER 05 U14 DNF DNS 0
999 81758 95 GUILFOYLE Jack HEIGH 05 U14 DSQ - 1 DNS 0
999 94213 104 KWAN Jaden BRIMA 05 U14 DSQ - 7 DNS 0
999 88418 41 STOCK Brady CALDN 05 U14 032.10 DNF 0
999 81127 16 SPARKS William GEORG 05 U14 030.63 DSQ - 7 0
25/02/2018 / Craigleith / NAT18.0315
© MECTiming All Rights Reserverd 2018